»·PEaware :: N74KW KDEW-KELN

N74KW :: KDEW-KELN

FLIGHT INFORMATION

Flight Status: Arrived
Operator: Privately registered:
United States
More flights under this callsign
Pilot: Charles C. (26995)
Aircraft: MCDONNELL-DOUGLAS SKYTRAIN C-47
(DC3)
More flights by this aircraft type
Origin: KDEW Deer Park
United States
Destination: KELN Bowers
United States
More flights between these airports :: More routes between these airports
Route: KDEW KELN
File this flight plan on PilotEdge
Remarks:
Altitude:
(Current/Filed)
8,500ft
Speed:
(Current/Filed)
150kts
Departed: 02-Sep-20 01:25 PM
Arrived: 02-Sep-20 02:29 PM
Distance/Time
Traveled:
138nm/1:03
Distance/Time
To Go:
Arrived

Flight Plot

Page will automatically refresh every two minutes.

Flight plan parsing failed; only flown route is shown


Map Options




Map Legend


Flown Route
Filed Route
Departure Airport
Arrival Airport
Navaid (VOR, NDB)
Fix

Horizontal Profiles

Position Reports

Time Latitude Longitude Heading Altitude Ground
Speed
02-Sep-20 13:19 47.966534 -117.433810 347 2207ft 0kts
02-Sep-20 13:20 47.966534 -117.433810 347 2207ft 0kts
02-Sep-20 13:21 47.966534 -117.433810 346 2207ft 0kts
02-Sep-20 13:22 47.970468 -117.433348 359 2211ft 33kts
02-Sep-20 13:23 47.976777 -117.432568 89 2218ft 4kts
02-Sep-20 13:24 47.966024 -117.431048 182 2216ft 110kts
02-Sep-20 13:25 47.942337 -117.451596 256 2792ft 115kts
02-Sep-20 13:26 47.935598 -117.497518 248 3406ft 113kts
02-Sep-20 13:27 47.925786 -117.542961 260 4013ft 118kts
02-Sep-20 13:28 47.920035 -117.591112 253 4657ft 119kts
02-Sep-20 13:29 47.907500 -117.637278 249 5309ft 120kts
02-Sep-20 13:30 47.894396 -117.683112 251 5944ft 119kts
02-Sep-20 13:31 47.881328 -117.728902 250 6416ft 129kts
02-Sep-20 13:32 47.865616 -117.783539 251 6404ft 149kts
02-Sep-20 13:33 47.849605 -117.839096 251 6407ft 142kts
02-Sep-20 13:34 47.834095 -117.892837 251 6408ft 141kts
02-Sep-20 13:35 47.818538 -117.946616 250 6410ft 141kts
02-Sep-20 13:36 47.803002 -118.000290 251 6412ft 140kts
02-Sep-20 13:37 47.787470 -118.053684 251 6408ft 140kts
02-Sep-20 13:39 47.771887 -118.107050 251 6410ft 140kts
02-Sep-20 13:40 47.756196 -118.160482 251 6408ft 140kts
02-Sep-20 13:41 47.740643 -118.213632 250 6411ft 140kts
02-Sep-20 13:42 47.725023 -118.266934 251 6409ft 140kts
02-Sep-20 13:43 47.709384 -118.320035 252 6410ft 139kts
02-Sep-20 13:44 47.693859 -118.372893 250 6401ft 139kts
02-Sep-20 13:45 47.678373 -118.425486 249 6393ft 139kts
02-Sep-20 13:46 47.662790 -118.478075 248 6385ft 138kts
02-Sep-20 13:47 47.647386 -118.530084 248 6380ft 137kts
02-Sep-20 13:48 47.631959 -118.581951 248 6370ft 136kts
02-Sep-20 13:49 47.616633 -118.633441 249 6372ft 136kts
02-Sep-20 13:50 47.601415 -118.684518 247 6372ft 136kts
02-Sep-20 13:51 47.585925 -118.736320 247 6377ft 137kts
02-Sep-20 13:52 47.570491 -118.787967 247 6371ft 137kts
02-Sep-20 13:53 47.554874 -118.839979 247 6375ft 138kts
02-Sep-20 13:54 47.539199 -118.892056 248 6378ft 139kts
02-Sep-20 13:54 47.526022 -118.935825 247 6377ft 140kts
02-Sep-20 13:56 47.507381 -118.997560 247 6371ft 141kts
02-Sep-20 13:57 47.491255 -119.050837 248 6373ft 142kts
02-Sep-20 13:57 47.477660 -119.095683 248 6370ft 143kts
02-Sep-20 13:59 47.458587 -119.158386 248 6376ft 142kts
02-Sep-20 13:59 47.444958 -119.203214 248 6374ft 144kts
02-Sep-20 14:00 47.428472 -119.257227 248 6373ft 143kts
02-Sep-20 14:01 47.412108 -119.310802 248 6373ft 143kts
02-Sep-20 14:02 47.395685 -119.364347 249 6373ft 142kts
02-Sep-20 14:03 47.379298 -119.417764 248 6371ft 143kts
02-Sep-20 14:04 47.362728 -119.471198 242 6369ft 144kts
02-Sep-20 14:05 47.340068 -119.520061 241 6372ft 144kts
02-Sep-20 14:06 47.317368 -119.568941 240 6376ft 144kts
02-Sep-20 14:07 47.294570 -119.617987 241 6371ft 144kts
02-Sep-20 14:08 47.271822 -119.666900 240 6374ft 144kts
02-Sep-20 14:09 47.249013 -119.715919 240 6373ft 145kts
02-Sep-20 14:10 47.226056 -119.765088 240 6379ft 146kts
02-Sep-20 14:11 47.202943 -119.814513 240 6375ft 146kts
02-Sep-20 14:12 47.179802 -119.864279 241 6372ft 147kts
02-Sep-20 14:13 47.156613 -119.914089 241 6378ft 148kts
02-Sep-20 14:14 47.133054 -119.964297 241 6372ft 150kts
02-Sep-20 14:15 47.109270 -120.014870 242 6376ft 151kts
02-Sep-20 14:16 47.085470 -120.065385 240 6387ft 151kts
02-Sep-20 14:17 47.060989 -120.117085 242 6042ft 159kts
02-Sep-20 14:18 47.034218 -120.173756 241 5191ft 177kts
02-Sep-20 14:19 47.005319 -120.234565 242 4250ft 181kts
02-Sep-20 14:20 46.977796 -120.292418 243 3859ft 152kts
02-Sep-20 14:21 46.955973 -120.338349 246 3897ft 126kts
02-Sep-20 14:22 46.942177 -120.377730 301 3842ft 93kts
02-Sep-20 14:23 46.959232 -120.410188 310 3176ft 108kts
02-Sep-20 14:24 46.978713 -120.442692 302 2696ft 101kts
02-Sep-20 14:25 46.997353 -120.470791 306 2552ft 91kts
02-Sep-20 14:26 47.013892 -120.496767 314 2205ft 86kts
02-Sep-20 14:27 47.028615 -120.519407 313 1863ft 59kts
02-Sep-20 14:28 47.033425 -120.526830 128 1760ft 21kts
02-Sep-20 14:29 47.030002 -120.525143 215 1748ft 24kts
02-Sep-20 14:30 47.029492 -120.525496 257 1745ft 0kts

Navigation Log

Ident Type
Flight plan parsing failed, navigation log unavailable